Time;durP1;ratioP1;P1;durP2;ratioP2;P2;SDS_P1;SDS_P2;PMS_P1;PMS_P2;Temp;Humidity;BMP_temperature;BMP_pressure;BME280_temperature;BME280_humidity;BME280_pressure;Samples;Min_cycle;Max_cycle;Signal;HPM_P1;HPM_P2
2021/01/24 00:00:28;;;;;;;4.22;3.20;;;17.90;66.90;;;;;;5085839;28;20048;-39
2021/01/24 00:02:53;;;;;;;3.13;2.83;;;17.90;67.10;;;;;;5072031;28;20029;-42
2021/01/24 00:05:23;;;;;;;3.25;3.05;;;17.90;67.20;;;;;;5071785;28;20036;-42
2021/01/24 00:07:49;;;;;;;6.10;3.33;;;17.80;67.10;;;;;;5071568;28;20032;-42
2021/01/24 00:10:16;;;;;;;3.78;3.00;;;17.80;66.90;;;;;;5074310;28;20082;-42
2021/01/24 00:12:42;;;;;;;3.42;3.13;;;17.80;67.10;;;;;;5072859;28;20394;-42
2021/01/24 00:15:08;;;;;;;3.40;3.15;;;17.80;67.00;;;;;;5072313;28;20025;-42
2021/01/24 00:17:34;;;;;;;3.22;3.03;;;17.80;66.90;;;;;;5073293;28;20083;-42
2021/01/24 00:20:00;;;;;;;3.00;2.80;;;17.70;67.10;;;;;;5071932;28;20119;-42
2021/01/24 00:22:27;;;;;;;3.17;2.97;;;17.70;66.90;;;;;;5074067;28;20508;-42
2021/01/24 00:24:53;;;;;;;4.13;3.05;;;17.70;67.00;;;;;;5073051;28;20486;-41
2021/01/24 00:27:19;;;;;;;3.90;3.60;;;17.70;67.00;;;;;;5072104;28;20027;-42
2021/01/24 00:29:44;;;;;;;3.45;3.22;;;17.70;67.00;;;;;;5071809;28;20119;-43
2021/01/24 00:32:10;;;;;;;3.50;3.20;;;17.70;66.90;;;;;;5072037;28;20023;-42
2021/01/24 00:34:35;;;;;;;3.50;3.30;;;17.70;66.90;;;;;;5073251;28;20028;-42
2021/01/24 00:37:01;;;;;;;3.88;3.47;;;17.70;66.70;;;;;;5073437;28;20497;-43
2021/01/24 00:39:27;;;;;;;3.65;3.35;;;17.70;66.80;;;;;;5071866;28;20078;-41
2021/01/24 00:41:52;;;;;;;3.03;2.83;;;17.60;66.90;;;;;;5072312;28;20046;-41
2021/01/24 00:44:18;;;;;;;3.92;3.63;;;17.60;66.70;;;;;;5072291;28;20417;-41
2021/01/24 00:46:44;;;;;;;4.07;3.78;;;17.60;66.80;;;;;;5072085;28;20027;-41
2021/01/24 00:49:10;;;;;;;3.40;3.15;;;17.70;66.70;;;;;;5073899;28;20028;-42
2021/01/24 00:51:35;;;;;;;3.92;3.53;;;17.70;66.70;;;;;;5070640;28;20032;-42
2021/01/24 00:54:01;;;;;;;7.05;3.47;;;17.60;66.50;;;;;;5071946;28;20027;-42
2021/01/24 00:56:26;;;;;;;3.70;3.42;;;17.60;66.60;;;;;;5070584;28;20055;-42
2021/01/24 00:58:52;;;;;;;3.67;3.38;;;17.60;66.50;;;;;;5071833;28;20107;-42
2021/01/24 01:01:17;;;;;;;3.78;3.45;;;17.60;66.70;;;;;;5073572;28;20513;-41
2021/01/24 01:03:43;;;;;;;4.20;3.83;;;17.60;66.60;;;;;;5072042;28;20059;-42
2021/01/24 01:06:09;;;;;;;3.78;3.47;;;17.60;66.70;;;;;;5071661;28;20017;-41
2021/01/24 01:08:34;;;;;;;3.72;3.45;;;17.60;66.60;;;;;;5071616;28;20036;-39
2021/01/24 01:11:00;;;;;;;3.53;3.30;;;17.60;66.60;;;;;;5071359;28;20115;-44
2021/01/24 01:13:25;;;;;;;4.00;3.70;;;17.60;66.60;;;;;;5072762;28;20394;-42
2021/01/24 01:15:51;;;;;;;4.18;3.88;;;17.60;66.50;;;;;;5071430;28;20039;-41
2021/01/24 01:18:16;;;;;;;4.72;4.25;;;17.60;66.50;;;;;;5070948;28;20021;-42
2021/01/24 01:20:42;;;;;;;3.90;3.60;;;17.50;66.40;;;;;;5071303;28;20073;-42
2021/01/24 01:23:07;;;;;;;3.50;3.28;;;17.60;66.50;;;;;;5071376;28;20020;-41
2021/01/24 01:25:33;;;;;;;4.20;3.90;;;17.60;66.30;;;;;;5072644;28;20024;-41
2021/01/24 01:27:58;;;;;;;4.80;4.40;;;17.60;66.30;;;;;;5071412;28;20024;-42
2021/01/24 01:30:24;;;;;;;4.20;3.90;;;17.60;66.50;;;;;;5069737;28;20083;-41
2021/01/24 01:32:50;;;;;;;4.05;3.85;;;17.60;66.40;;;;;;5070864;28;20033;-38
2021/01/24 01:35:15;;;;;;;4.35;4.00;;;17.50;66.30;;;;;;5069669;28;20021;-39
2021/01/24 01:37:41;;;;;;;4.20;3.90;;;17.50;66.20;;;;;;5071209;28;20428;-40
2021/01/24 01:40:07;;;;;;;4.05;3.75;;;17.50;66.20;;;;;;5072628;28;20048;-41
2021/01/24 01:42:33;;;;;;;4.63;4.32;;;17.50;66.20;;;;;;5070973;28;20024;-37
2021/01/24 01:44:59;;;;;;;4.07;3.78;;;17.50;66.10;;;;;;5070953;28;20033;-40
2021/01/24 01:47:25;;;;;;;4.10;3.80;;;17.50;66.20;;;;;;5070642;28;20507;-40
2021/01/24 01:49:56;;;;;;;4.55;4.18;;;17.50;66.20;;;;;;5070758;28;20063;-40
2021/01/24 01:52:25;;;;;;;5.10;4.53;;;17.50;66.30;;;;;;5071962;28;20044;-40
2021/01/24 01:54:51;;;;;;;5.13;4.72;;;17.50;66.30;;;;;;5070545;28;20111;-40
2021/01/24 01:57:17;;;;;;;4.80;4.50;;;17.40;66.10;;;;;;5069361;28;20052;-40
2021/01/24 01:59:43;;;;;;;3.80;3.60;;;17.50;66.40;;;;;;5070272;28;20033;-40
2021/01/24 02:02:20;;;;;;;4.55;4.25;;;17.50;66.40;;;;;;5070523;28;20093;-39
2021/01/24 02:04:52;;;;;;;4.25;3.95;;;17.50;66.30;;;;;;5069473;28;20020;-40
2021/01/24 02:07:47;;;;;;;4.82;4.53;;;17.40;66.90;;;;;;5072529;28;20441;-40
2021/01/24 02:10:47;;;;;;;4.32;4.03;;;17.40;65.90;;;;;;5068268;28;20756;-40
2021/01/24 02:13:16;;;;;;;5.22;4.80;;;17.50;66.10;;;;;;5010756;28;20050;-40
2021/01/24 02:15:42;;;;;;;4.68;4.38;;;17.40;66.10;;;;;;5007150;28;20044;-40
2021/01/24 02:18:08;;;;;;;4.72;4.32;;;17.40;66.20;;;;;;5015912;28;20022;-39
2021/01/24 02:20:51;;;;;;;4.60;4.30;;;17.40;66.10;;;;;;4981878;28;20782;-40
2021/01/24 02:23:20;;;;;;;4.50;4.20;;;17.40;66.20;;;;;;5007914;28;20037;-40
2021/01/24 02:26:04;;;;;;;4.22;3.92;;;17.40;66.10;;;;;;4991299;28;20515;-39
2021/01/24 02:28:33;;;;;;;3.92;3.67;;;17.40;66.10;;;;;;4993645;28;20116;-41
2021/01/24 02:30:58;;;;;;;4.63;4.32;;;17.40;66.30;;;;;;5007809;28;20038;-40
2021/01/24 02:33:25;;;;;;;4.30;4.00;;;17.40;66.20;;;;;;5013207;28;20109;-40
2021/01/24 02:35:55;;;;;;;4.88;4.50;;;17.40;66.30;;;;;;4983965;28;20414;-39
2021/01/24 02:38:21;;;;;;;4.40;4.10;;;17.40;66.40;;;;;;4990587;28;20029;-42
2021/01/24 02:40:46;;;;;;;4.70;4.30;;;17.40;66.40;;;;;;4991436;28;20038;-39
2021/01/24 02:43:12;;;;;;;4.53;4.22;;;17.40;66.20;;;;;;4990420;28;20147;-41
2021/01/24 02:45:42;;;;;;;4.22;3.92;;;17.40;66.30;;;;;;5009401;28;20045;-40
2021/01/24 02:48:09;;;;;;;4.63;4.25;;;17.40;66.40;;;;;;5033747;28;20039;-40
2021/01/24 02:50:34;;;;;;;4.68;4.35;;;17.40;66.40;;;;;;5056528;28;20041;-39
2021/01/24 02:53:00;;;;;;;4.72;4.40;;;17.30;66.40;;;;;;5068580;28;20031;-40
2021/01/24 02:55:27;;;;;;;4.45;4.15;;;17.30;66.30;;;;;;5054308;28;20034;-39
2021/01/24 02:57:54;;;;;;;3.70;3.50;;;17.30;66.30;;;;;;5067487;28;20031;-40
2021/01/24 03:00:20;;;;;;;4.70;4.40;;;17.30;66.10;;;;;;5068682;28;20135;-40
2021/01/24 03:02:45;;;;;;;4.03;3.72;;;17.30;66.20;;;;;;5069676;28;20081;-41
2021/01/24 03:05:12;;;;;;;3.67;3.47;;;17.30;66.00;;;;;;5068639;28;20103;-41
2021/01/24 03:07:37;;;;;;;4.25;3.95;;;17.30;66.00;;;;;;5070470;28;20082;-39
2021/01/24 03:10:03;;;;;;;3.80;3.50;;;17.30;66.00;;;;;;5069546;28;20040;-40
2021/01/24 03:12:32;;;;;;;4.00;3.70;;;17.30;66.20;;;;;;5051783;28;20039;-40
2021/01/24 03:14:58;;;;;;;5.10;4.43;;;17.30;65.90;;;;;;5052236;28;20100;-39
2021/01/24 03:17:23;;;;;;;4.30;4.00;;;17.30;66.10;;;;;;5068578;28;20115;-40
2021/01/24 03:19:49;;;;;;;4.32;4.03;;;17.30;66.10;;;;;;5069871;28;20033;-39
2021/01/24 03:22:14;;;;;;;4.35;4.05;;;17.30;66.30;;;;;;5070649;28;20505;-40
2021/01/24 03:24:42;;;;;;;4.15;3.85;;;17.30;66.20;;;;;;5051812;28;20052;-40
2021/01/24 03:27:08;;;;;;;4.30;4.00;;;17.30;66.10;;;;;;5066933;28;20025;-39
2021/01/24 03:29:33;;;;;;;3.83;3.63;;;17.30;66.10;;;;;;5068418;28;20042;-40
2021/01/24 03:31:59;;;;;;;4.00;3.58;;;17.30;66.10;;;;;;5066874;28;20037;-37
2021/01/24 03:34:25;;;;;;;4.03;3.75;;;17.30;66.10;;;;;;5071887;28;20028;-39
2021/01/24 03:36:52;;;;;;;4.38;4.07;;;17.30;65.90;;;;;;5069493;28;20064;-35
2021/01/24 03:39:17;;;;;;;3.88;3.67;;;17.30;65.80;;;;;;5072044;28;20074;-40
2021/01/24 03:41:43;;;;;;;4.20;3.90;;;17.40;65.70;;;;;;5073012;28;20029;-40
2021/01/24 03:44:09;;;;;;;4.50;4.20;;;17.30;65.80;;;;;;5072159;28;20032;-40
2021/01/24 03:46:35;;;;;;;4.07;3.80;;;17.30;65.80;;;;;;5074375;28;20104;-35
2021/01/24 03:49:01;;;;;;;3.88;3.67;;;17.30;65.90;;;;;;5074134;28;20398;-40
2021/01/24 03:51:27;;;;;;;4.32;4.03;;;17.30;65.90;;;;;;5073010;28;20044;-39
2021/01/24 03:53:52;;;;;;;4.25;3.95;;;17.20;66.00;;;;;;5073143;28;20032;-40
2021/01/24 03:56:18;;;;;;;3.75;3.55;;;17.20;65.90;;;;;;5072781;28;20114;-40
2021/01/24 03:58:44;;;;;;;4.45;4.05;;;17.20;65.80;;;;;;5072806;28;20051;-40
2021/01/24 04:01:09;;;;;;;4.05;3.85;;;17.20;65.40;;;;;;5074935;28;20053;-39
2021/01/24 04:03:35;;;;;;;3.90;3.70;;;17.20;65.80;;;;;;5072819;28;20035;-39
2021/01/24 04:06:00;;;;;;;3.78;3.58;;;17.20;65.80;;;;;;5071344;28;20025;-35
2021/01/24 04:08:26;;;;;;;4.35;3.92;;;17.20;65.90;;;;;;5072944;28;20086;-40
2021/01/24 04:10:52;;;;;;;3.90;3.60;;;17.20;65.70;;;;;;5072404;28;20111;-39
2021/01/24 04:13:17;;;;;;;4.15;3.85;;;17.20;65.80;;;;;;5074771;28;20442;-40
2021/01/24 04:15:43;;;;;;;3.70;3.50;;;17.20;65.80;;;;;;5072444;28;20038;-41
2021/01/24 04:18:08;;;;;;;3.55;3.35;;;17.20;65.60;;;;;;5071597;28;20494;-42
2021/01/24 04:20:34;;;;;;;3.40;3.20;;;17.20;65.30;;;;;;5071692;28;20043;-42
2021/01/24 04:22:59;;;;;;;3.53;3.33;;;17.30;65.70;;;;;;5071470;28;20083;-40
2021/01/24 04:25:25;;;;;;;3.65;3.35;;;17.30;65.40;;;;;;5071769;28;20490;-39
2021/01/24 04:27:51;;;;;;;3.40;3.20;;;17.30;65.50;;;;;;5071565;28;20028;-41
2021/01/24 04:30:17;;;;;;;3.50;3.20;;;17.20;65.60;;;;;;5071059;28;20074;-40
2021/01/24 04:32:42;;;;;;;3.72;3.53;;;17.30;65.60;;;;;;5071448;28;20027;-41
2021/01/24 04:35:09;;;;;;;4.03;3.60;;;17.30;65.50;;;;;;5071541;28;20028;-41
2021/01/24 04:37:34;;;;;;;3.95;3.65;;;17.20;66.30;;;;;;5068530;28;20096;-41
2021/01/24 04:40:00;;;;;;;3.70;3.50;;;17.30;65.50;;;;;;5071527;28;20127;-41
2021/01/24 04:42:26;;;;;;;4.07;3.78;;;17.20;65.60;;;;;;5071473;28;20477;-42
2021/01/24 04:44:52;;;;;;;3.50;3.30;;;17.20;65.90;;;;;;5070034;28;20035;-41
2021/01/24 04:47:18;;;;;;;3.40;3.15;;;17.10;65.90;;;;;;5069907;28;20028;-42
2021/01/24 04:49:43;;;;;;;3.50;3.20;;;17.10;65.90;;;;;;5052716;28;20033;-41
2021/01/24 04:52:09;;;;;;;3.55;3.35;;;17.20;65.80;;;;;;5072903;28;21400;-46
2021/01/24 04:54:34;;;;;;;3.80;3.50;;;17.20;65.50;;;;;;5052925;28;20025;-42
2021/01/24 04:57:00;;;;;;;3.40;3.20;;;17.30;65.30;;;;;;5069717;28;20027;-42
2021/01/24 04:59:25;;;;;;;3.25;3.05;;;17.20;65.10;;;;;;5053104;28;20468;-43
2021/01/24 05:01:51;;;;;;;3.25;3.05;;;17.20;65.50;;;;;;5070611;28;20056;-39
2021/01/24 05:04:17;;;;;;;3.40;3.20;;;17.20;65.60;;;;;;5054663;28;20026;-42
2021/01/24 05:06:43;;;;;;;3.33;3.03;;;17.20;65.50;;;;;;5071504;28;20024;-41
2021/01/24 05:09:08;;;;;;;3.20;3.00;;;17.30;65.20;;;;;;5071459;28;20107;-42
2021/01/24 05:11:34;;;;;;;3.38;3.08;;;17.30;65.20;;;;;;5071475;28;20044;-39
2021/01/24 05:14:16;;;;;;;3.63;3.42;;;17.20;65.10;;;;;;5071698;28;20021;-40
2021/01/24 05:16:42;;;;;;;3.17;2.97;;;17.20;65.30;;;;;;5071232;28;20043;-40
2021/01/24 05:19:08;;;;;;;3.33;3.13;;;17.30;65.30;;;;;;5072097;28;20028;-42
2021/01/24 05:21:35;;;;;;;3.25;3.05;;;17.20;65.20;;;;;;5070176;28;20028;-38
2021/01/24 05:24:01;;;;;;;3.13;3.00;;;17.20;65.20;;;;;;5069302;28;20025;-40
2021/01/24 05:26:26;;;;;;;2.90;2.80;;;17.20;65.40;;;;;;5071667;28;20073;-39
2021/01/24 05:28:52;;;;;;;2.92;2.72;;;17.10;65.40;;;;;;5069506;28;20394;-39
2021/01/24 05:31:21;;;;;;;3.78;3.47;;;17.10;65.50;;;;;;5070823;28;20085;-39
2021/01/24 05:33:46;;;;;;;3.42;3.22;;;17.00;65.60;;;;;;5071062;28;20126;-40
2021/01/24 05:36:12;;;;;;;3.63;3.10;;;17.00;65.80;;;;;;5068658;28;20036;-39
2021/01/24 05:38:38;;;;;;;3.03;2.83;;;17.00;65.60;;;;;;5070779;28;20086;-40
2021/01/24 05:41:05;;;;;;;3.10;2.90;;;17.00;65.70;;;;;;5071099;28;20032;-40
2021/01/24 05:43:40;;;;;;;3.00;2.80;;;17.00;65.70;;;;;;5072491;28;20506;-39
2021/01/24 05:46:06;;;;;;;3.10;2.90;;;17.00;65.50;;;;;;5072734;28;20035;-40
2021/01/24 05:48:33;;;;;;;3.20;3.00;;;17.00;65.70;;;;;;5070755;28;20025;-40
2021/01/24 05:51:04;;;;;;;2.90;2.70;;;17.00;65.70;;;;;;5070704;28;20039;-40
2021/01/24 05:53:37;;;;;;;3.40;3.10;;;17.10;65.40;;;;;;5070743;28;20035;-39
2021/01/24 05:56:08;;;;;;;2.75;2.60;;;17.10;65.30;;;;;;5055754;28;20033;-40
2021/01/24 05:58:33;;;;;;;2.63;2.53;;;17.10;65.50;;;;;;5070865;28;20100;-39
2021/01/24 06:00:59;;;;;;;6.00;2.72;;;17.10;65.40;;;;;;5070325;28;20147;-40
2021/01/24 06:03:24;;;;;;;2.55;2.42;;;17.00;65.40;;;;;;5068053;28;20481;-39
2021/01/24 06:05:50;;;;;;;2.63;2.53;;;17.10;65.30;;;;;;5069478;28;20397;-39
2021/01/24 06:08:15;;;;;;;2.40;2.30;;;17.00;65.40;;;;;;5068798;28;20091;-40
2021/01/24 06:10:41;;;;;;;2.45;2.35;;;17.10;65.40;;;;;;5070781;28;20090;-40
2021/01/24 06:13:11;;;;;;;2.65;2.50;;;17.00;65.30;;;;;;5072216;28;20025;-40
2021/01/24 06:15:37;;;;;;;2.97;2.78;;;17.10;65.30;;;;;;5070518;28;20402;-39
2021/01/24 06:18:04;;;;;;;2.92;2.72;;;17.10;65.30;;;;;;5070286;28;20028;-40
2021/01/24 06:20:39;;;;;;;2.30;2.20;;;17.00;65.40;;;;;;5070530;28;20031;-39
2021/01/24 06:23:23;;;;;;;2.72;2.50;;;17.00;65.50;;;;;;5054609;28;20407;-40
2021/01/24 06:25:49;;;;;;;2.83;2.63;;;17.00;65.40;;;;;;5054391;28;20449;-39
2021/01/24 06:28:23;;;;;;;2.60;2.40;;;17.00;65.50;;;;;;5044177;28;20036;-40
2021/01/24 06:30:49;;;;;;;3.03;2.83;;;17.00;65.40;;;;;;5066896;28;20032;-40
2021/01/24 06:33:16;;;;;;;2.50;2.40;;;17.00;65.50;;;;;;5048877;28;20029;-39
2021/01/24 06:35:49;;;;;;;2.30;2.20;;;17.00;65.50;;;;;;5060152;28;20111;-40
2021/01/24 06:38:44;;;;;;;2.20;2.10;;;17.00;65.70;;;;;;5069544;28;20036;-40
2021/01/24 06:41:11;;;;;;;2.53;2.42;;;17.00;65.80;;;;;;5042391;28;20078;-41
2021/01/24 06:43:46;;;;;;;2.50;2.30;;;17.00;65.60;;;;;;5071174;28;20033;-43
2021/01/24 06:46:21;;;;;;;2.35;2.25;;;17.00;65.50;;;;;;5070206;28;20032;-40
2021/01/24 06:48:50;;;;;;;1.90;1.80;;;16.90;65.50;;;;;;5070188;28;20032;-40
2021/01/24 06:51:35;;;;;;;2.40;2.30;;;16.90;65.50;;;;;;5069888;28;20036;-42
2021/01/24 06:54:02;;;;;;;2.47;2.28;;;16.90;65.50;;;;;;5070090;28;20030;-40
2021/01/24 06:56:42;;;;;;;1.90;1.80;;;16.90;65.60;;;;;;5069877;28;20119;-40
2021/01/24 06:59:08;;;;;;;2.28;2.17;;;16.90;65.60;;;;;;5055724;28;20060;-41
2021/01/24 07:01:37;;;;;;;2.53;2.40;;;16.90;65.70;;;;;;5071092;28;20036;-38
2021/01/24 07:04:20;;;;;;;1.95;1.85;;;16.90;65.50;;;;;;5070606;28;20024;-41
2021/01/24 07:06:56;;;;;;;2.03;1.92;;;16.90;65.60;;;;;;5066815;28;20017;-41
2021/01/24 07:09:27;;;;;;;1.70;1.60;;;16.90;65.70;;;;;;5064404;28;20490;-41
2021/01/24 07:11:59;;;;;;;1.90;1.80;;;16.90;65.70;;;;;;5070903;28;20028;-40
2021/01/24 07:14:37;;;;;;;2.05;1.95;;;16.90;65.30;;;;;;5073962;28;20025;-43
2021/01/24 07:17:06;;;;;;;1.90;1.80;;;16.90;65.10;;;;;;5058614;28;20029;-41
2021/01/24 07:19:33;;;;;;;1.55;1.45;;;16.90;64.80;;;;;;5072331;28;20386;-43
2021/01/24 07:21:59;;;;;;;2.00;1.90;;;17.00;64.80;;;;;;5069209;28;20032;-41
2021/01/24 07:24:25;;;;;;;2.10;2.00;;;17.00;64.70;;;;;;5072907;28;20024;-41
2021/01/24 07:26:53;;;;;;;1.75;1.65;;;17.00;64.70;;;;;;5063676;28;20030;-42
2021/01/24 07:29:19;;;;;;;1.60;1.50;;;17.00;64.70;;;;;;5068769;28;20013;-42
2021/01/24 07:31:44;;;;;;;2.00;1.90;;;17.00;64.80;;;;;;5062377;28;20406;-44
2021/01/24 07:34:10;;;;;;;2.00;1.90;;;17.00;64.80;;;;;;5072112;28;20571;-41
2021/01/24 07:36:35;;;;;;;1.73;1.63;;;17.00;64.80;;;;;;5072174;28;20193;-40
2021/01/24 07:39:01;;;;;;;1.75;1.65;;;17.00;64.70;;;;;;5074369;28;20489;-41
2021/01/24 07:41:27;;;;;;;1.70;1.60;;;17.00;64.70;;;;;;5073394;28;20027;-39
2021/01/24 07:43:52;;;;;;;1.42;1.42;;;17.00;64.60;;;;;;5073054;28;20028;-40
2021/01/24 07:46:20;;;;;;;1.65;1.55;;;17.00;64.60;;;;;;5068548;28;20029;-41
2021/01/24 07:48:46;;;;;;;1.75;1.65;;;17.00;64.60;;;;;;5068076;28;20043;-41
2021/01/24 07:51:11;;;;;;;1.83;1.73;;;17.00;64.80;;;;;;5066814;28;20055;-41
2021/01/24 07:53:37;;;;;;;1.30;1.30;;;17.00;64.80;;;;;;5072556;28;20033;-41
2021/01/24 07:56:02;;;;;;;1.80;1.70;;;17.00;64.80;;;;;;5055282;28;20078;-41
2021/01/24 07:58:28;;;;;;;1.75;1.65;;;16.90;64.80;;;;;;5053410;28;20032;-39
2021/01/24 08:00:54;;;;;;;1.50;1.40;;;16.90;64.70;;;;;;5068626;28;20052;-40
2021/01/24 08:03:20;;;;;;;1.58;1.48;;;16.90;64.70;;;;;;5060430;28;20119;-41
2021/01/24 08:05:46;;;;;;;1.30;1.30;;;16.90;64.60;;;;;;5068574;28;20047;-41
2021/01/24 08:08:12;;;;;;;1.35;1.35;;;16.90;64.80;;;;;;5070179;28;20517;-41
2021/01/24 08:10:37;;;;;;;1.20;1.20;;;16.90;64.50;;;;;;5072098;28;20574;-42
2021/01/24 08:13:03;;;;;;;1.70;1.60;;;16.90;64.60;;;;;;5074014;28;20037;-41
2021/01/24 08:15:28;;;;;;;1.30;1.20;;;16.90;64.50;;;;;;5071129;28;20025;-41
2021/01/24 08:17:54;;;;;;;1.55;1.45;;;16.90;64.50;;;;;;5071259;28;20028;-38
2021/01/24 08:20:20;;;;;;;1.15;1.15;;;16.90;64.60;;;;;;5071204;28;20034;-41
2021/01/24 08:22:46;;;;;;;1.30;1.20;;;16.90;64.90;;;;;;5050985;28;20059;-42
2021/01/24 08:25:12;;;;;;;2.58;1.40;;;16.90;64.60;;;;;;5071470;28;20052;-42
2021/01/24 08:27:39;;;;;;;1.48;1.38;;;16.90;64.20;;;;;;5072694;28;20025;-42
2021/01/24 08:30:05;;;;;;;1.33;1.23;;;16.90;64.30;;;;;;5071945;28;20050;-43
2021/01/24 08:32:31;;;;;;;1.73;1.63;;;16.90;64.50;;;;;;5072128;28;20533;-43
2021/01/24 08:34:57;;;;;;;1.48;1.38;;;16.90;64.20;;;;;;5072360;28;20670;-43
2021/01/24 08:37:23;;;;;;;5.45;1.58;;;16.90;63.80;;;;;;5051018;28;20016;-40
2021/01/24 08:39:50;;;;;;;1.35;1.30;;;16.90;64.20;;;;;;5058815;28;20036;-41
2021/01/24 08:42:16;;;;;;;1.55;1.45;;;16.90;64.30;;;;;;5056388;28;20028;-37
2021/01/24 08:44:57;;;;;;;1.50;1.40;;;16.90;64.40;;;;;;5059754;28;20033;-36
2021/01/24 08:47:23;;;;;;;1.50;1.40;;;16.90;64.30;;;;;;5057904;28;20103;-31
2021/01/24 08:49:49;;;;;;;1.75;1.45;;;16.90;64.30;;;;;;5058443;28;20052;-39
2021/01/24 08:52:20;;;;;;;1.70;1.60;;;16.90;64.20;;;;;;5056753;28;20060;-42
2021/01/24 08:54:45;;;;;;;1.27;1.17;;;16.90;64.60;;;;;;5058814;28;20413;-42
2021/01/24 08:57:15;;;;;;;1.52;1.42;;;16.90;64.80;;;;;;5058500;28;20028;-33
2021/01/24 08:59:57;;;;;;;2.47;2.38;;;17.00;64.60;;;;;;5058696;28;22004;-39
2021/01/24 09:02:33;;;;;;;1.80;1.70;;;17.00;65.10;;;;;;5059036;28;20040;-26
2021/01/24 09:05:00;;;;;;;2.53;1.40;;;17.00;64.60;;;;;;5059373;28;20063;-42
2021/01/24 09:07:35;;;;;;;1.75;1.65;;;17.10;65.00;;;;;;5060648;28;20391;-44
2021/01/24 09:10:24;;;;;;;2.20;1.40;;;17.10;65.20;;;;;;5056854;28;20063;-45
2021/01/24 09:12:57;;;;;;;3.45;1.88;;;17.10;66.90;;;;;;5056340;28;20455;-43
2021/01/24 09:15:24;;;;;;;1.65;1.35;;;17.10;66.70;;;;;;5057227;28;20039;-34
2021/01/24 09:17:54;;;;;;;1.15;1.15;;;17.20;65.80;;;;;;5057998;28;20882;-43
2021/01/24 09:20:19;;;;;;;1.15;1.15;;;17.20;65.80;;;;;;5057668;28;20036;-39
2021/01/24 09:22:45;;;;;;;1.50;1.40;;;17.20;65.90;;;;;;5055507;28;20029;-41
2021/01/24 09:25:11;;;;;;;1.40;1.30;;;17.30;65.90;;;;;;5057673;28;20115;-30
2021/01/24 09:27:37;;;;;;;2.25;1.30;;;17.40;65.50;;;;;;5057059;28;20043;-33
2021/01/24 09:30:07;;;;;;;1.80;1.30;;;17.40;64.90;;;;;;5056468;28;20170;-33
2021/01/24 09:32:32;;;;;;;1.95;1.20;;;17.40;65.00;;;;;;5055061;28;20070;-43
2021/01/24 09:34:58;;;;;;;1.73;1.63;;;17.40;64.90;;;;;;5056015;28;20500;-41
2021/01/24 09:37:23;;;;;;;1.60;1.50;;;17.30;65.30;;;;;;5056727;28;20048;-44
2021/01/24 09:39:49;;;;;;;1.20;1.10;;;17.30;65.30;;;;;;5056971;28;20082;-42
2021/01/24 09:42:15;;;;;;;1.50;1.40;;;17.30;65.10;;;;;;5056077;28;20028;-40
2021/01/24 09:44:40;;;;;;;1.38;1.30;;;17.30;65.10;;;;;;5056145;28;20047;-38
2021/01/24 09:47:06;;;;;;;1.45;1.35;;;17.30;65.10;;;;;;5057088;28;20115;-44
2021/01/24 09:49:31;;;;;;;1.50;1.40;;;17.30;64.90;;;;;;5055310;28;20431;-44
2021/01/24 09:51:57;;;;;;;1.25;1.20;;;17.40;64.80;;;;;;5055423;28;20119;-41
2021/01/24 09:54:23;;;;;;;3.58;1.40;;;17.40;64.70;;;;;;5056860;28;20016;-44
2021/01/24 09:56:48;;;;;;;1.58;1.48;;;17.40;64.90;;;;;;5056193;28;20031;-44
2021/01/24 09:59:15;;;;;;;1.88;1.33;;;17.50;63.90;;;;;;5056305;28;20066;-45
2021/01/24 10:01:41;;;;;;;2.17;1.55;;;17.60;64.50;;;;;;5054709;28;20071;-37
2021/01/24 10:04:07;;;;;;;1.35;1.23;;;17.70;63.90;;;;;;5057452;28;20085;-40
2021/01/24 10:06:33;;;;;;;1.33;1.13;;;17.70;63.60;;;;;;5056765;28;20629;-35
2021/01/24 10:08:59;;;;;;;2.88;1.33;;;17.80;63.80;;;;;;5056314;28;20040;-35
2021/01/24 10:11:25;;;;;;;5.07;2.00;;;17.80;64.20;;;;;;5056365;28;20127;-32
2021/01/24 10:13:51;;;;;;;2.90;2.25;;;17.90;64.20;;;;;;5055031;28;20028;-27
2021/01/24 10:16:16;;;;;;;3.55;2.78;;;17.90;63.80;;;;;;5054387;28;20032;-35
2021/01/24 10:18:42;;;;;;;2.25;2.03;;;17.90;64.20;;;;;;5055454;28;20062;-28
2021/01/24 10:21:07;;;;;;;4.97;2.00;;;17.80;64.60;;;;;;5054475;28;20038;-27
2021/01/24 10:23:33;;;;;;;6.40;1.80;;;17.80;64.40;;;;;;5055834;28;20060;-33
2021/01/24 10:25:59;;;;;;;3.80;2.53;;;17.90;64.40;;;;;;5057832;28;20036;-28
2021/01/24 10:28:25;;;;;;;2.08;1.77;;;17.80;64.40;;;;;;4706675;28;10000463;-30
2021/01/24 10:30:52;;;;;;;2.38;2.20;;;18.00;64.10;;;;;;5055551;28;20091;-38
2021/01/24 10:33:17;;;;;;;1.92;1.73;;;17.90;63.90;;;;;;5053965;28;20020;-31
2021/01/24 10:35:43;;;;;;;1.67;1.58;;;17.90;64.00;;;;;;5057070;28;20022;-33
2021/01/24 10:38:09;;;;;;;2.17;1.80;;;17.90;63.60;;;;;;5055886;28;20028;-30
2021/01/24 10:40:35;;;;;;;3.45;1.90;;;17.90;63.30;;;;;;5057137;28;20405;-36
2021/01/24 10:43:04;;;;;;;1.90;1.80;;;17.90;63.10;;;;;;5055991;28;20090;-31
2021/01/24 10:45:30;;;;;;;1.90;1.80;;;17.90;63.10;;;;;;5057132;28;20687;-31
2021/01/24 10:47:56;;;;;;;1.90;1.70;;;17.80;63.40;;;;;;5056972;28;20039;-31
2021/01/24 10:50:22;;;;;;;2.58;2.05;;;17.80;63.70;;;;;;5055172;28;20063;-33
2021/01/24 10:52:47;;;;;;;1.92;1.60;;;17.70;63.60;;;;;;5055081;28;20112;-32
2021/01/24 10:55:13;;;;;;;2.30;1.73;;;17.90;63.40;;;;;;5056763;28;20510;-30
2021/01/24 10:57:39;;;;;;;2.38;1.63;;;17.90;63.30;;;;;;5056613;28;20024;-29
2021/01/24 11:00:06;;;;;;;2.08;1.63;;;18.00;63.00;;;;;;5056048;28;20060;-31
2021/01/24 11:02:31;;;;;;;3.30;2.03;;;18.10;63.00;;;;;;5054594;28;20033;-32
2021/01/24 11:04:57;;;;;;;1.90;1.75;;;18.10;62.80;;;;;;5054450;28;20033;-45
2021/01/24 11:07:23;;;;;;;2.78;1.63;;;18.20;62.70;;;;;;5056495;28;20027;-34
2021/01/24 11:09:49;;;;;;;2.33;2.13;;;18.20;62.60;;;;;;5055610;28;20045;-30
2021/01/24 11:12:14;;;;;;;2.17;2.08;;;18.30;62.70;;;;;;5054262;28;20086;-31
2021/01/24 11:14:41;;;;;;;1.92;1.83;;;18.30;62.70;;;;;;5056312;28;20032;-30
2021/01/24 11:17:07;;;;;;;2.85;2.20;;;18.20;62.60;;;;;;5056158;28;20043;-32
2021/01/24 11:19:32;;;;;;;2.10;2.00;;;18.30;62.80;;;;;;5056829;28;20036;-28
2021/01/24 11:21:58;;;;;;;2.25;2.05;;;18.30;62.80;;;;;;5055296;28;20473;-28
2021/01/24 11:24:23;;;;;;;2.20;2.10;;;18.30;63.00;;;;;;5054520;28;20047;-33
2021/01/24 11:26:50;;;;;;;2.33;2.22;;;18.20;63.20;;;;;;5054828;28;20040;-31
2021/01/24 11:29:15;;;;;;;3.33;3.13;;;18.30;63.00;;;;;;5055674;28;20036;-28
2021/01/24 11:31:41;;;;;;;3.53;3.22;;;18.20;63.40;;;;;;5053970;28;20426;-32
2021/01/24 11:34:07;;;;;;;4.30;3.15;;;18.20;63.20;;;;;;5056414;28;20044;-30
2021/01/24 11:36:32;;;;;;;5.03;4.65;;;18.20;63.20;;;;;;5054876;28;20115;-26
2021/01/24 11:38:58;;;;;;;5.40;4.90;;;18.20;63.40;;;;;;5055514;28;20047;-29
2021/01/24 11:41:25;;;;;;;6.03;5.57;;;18.20;63.30;;;;;;5054461;28;20766;-32
2021/01/24 11:43:51;;;;;;;7.80;6.97;;;18.20;63.20;;;;;;5055728;28;20028;-35
2021/01/24 11:46:17;;;;;;;8.82;8.02;;;18.20;63.30;;;;;;5056852;28;20028;-32
2021/01/24 11:48:43;;;;;;;8.35;7.45;;;18.30;63.00;;;;;;5055808;28;20098;-29
2021/01/24 11:51:10;;;;;;;8.77;7.93;;;18.30;62.80;;;;;;5054139;28;20532;-30
2021/01/24 11:53:38;;;;;;;8.40;7.60;;;18.30;62.60;;;;;;5055231;28;20024;-28
2021/01/24 11:56:05;;;;;;;7.95;7.22;;;18.30;62.60;;;;;;5055133;28;20091;-41
2021/01/24 11:58:30;;;;;;;7.88;7.18;;;18.30;62.70;;;;;;5058287;28;20081;-30
2021/01/24 12:00:56;;;;;;;7.75;6.97;;;18.30;62.70;;;;;;5058983;28;20045;-30
2021/01/24 12:03:21;;;;;;;7.45;6.78;;;18.30;62.60;;;;;;5058425;28;20033;-31
2021/01/24 12:05:47;;;;;;;7.00;6.40;;;18.30;62.60;;;;;;5058692;28;20171;-34
2021/01/24 12:08:12;;;;;;;6.65;6.15;;;18.30;62.50;;;;;;5059019;28;20402;-31
2021/01/24 12:10:39;;;;;;;6.97;6.38;;;18.20;62.60;;;;;;5059271;28;20080;-33
2021/01/24 12:13:05;;;;;;;6.75;6.22;;;18.30;62.50;;;;;;5057248;28;20059;-33
2021/01/24 12:15:31;;;;;;;6.53;6.03;;;18.30;62.60;;;;;;5058759;28;20030;-33
2021/01/24 12:17:57;;;;;;;6.75;6.15;;;18.30;62.50;;;;;;5058790;28;20452;-31
2021/01/24 12:20:23;;;;;;;6.15;5.75;;;18.30;62.30;;;;;;5058750;28;20115;-28
2021/01/24 12:22:49;;;;;;;6.28;5.80;;;18.30;62.20;;;;;;5039482;28;20058;-27
2021/01/24 12:25:15;;;;;;;5.78;5.30;;;18.30;62.30;;;;;;5059255;28;20033;-29
2021/01/24 12:27:41;;;;;;;6.35;5.85;;;18.30;62.20;;;;;;5058014;28;20439;-35
2021/01/24 12:30:08;;;;;;;5.70;5.05;;;18.30;62.20;;;;;;5058875;28;20052;-29
2021/01/24 12:32:33;;;;;;;6.03;5.63;;;18.30;62.10;;;;;;5057378;28;20626;-29
2021/01/24 12:34:59;;;;;;;5.32;4.93;;;18.30;62.10;;;;;;5058212;28;20028;-31
2021/01/24 12:37:25;;;;;;;4.88;4.57;;;18.30;62.00;;;;;;5058746;28;20166;-31
2021/01/24 12:39:51;;;;;;;5.30;4.90;;;18.30;62.00;;;;;;5057707;28;20932;-32
2021/01/24 12:42:17;;;;;;;4.88;4.50;;;18.30;62.00;;;;;;5057161;28;20037;-33
2021/01/24 12:44:43;;;;;;;4.93;4.63;;;18.40;62.00;;;;;;5057964;28;20033;-30